createdAt,value
2016-12-07T00:00:02.984Z,23.96
2016-12-07T00:02:39.103Z,23.75
2016-12-07T00:03:49.681Z,23.74
2016-12-07T00:05:00.262Z,23.81
2016-12-07T00:06:10.830Z,23.79
2016-12-07T00:07:21.416Z,23.72
2016-12-07T00:08:32.173Z,23.68
2016-12-07T00:09:42.737Z,23.72
2016-12-07T00:10:53.312Z,23.63
2016-12-07T00:12:03.859Z,23.75
2016-12-07T00:13:14.969Z,23.75
2016-12-07T00:14:25.526Z,23.74
2016-12-07T00:15:36.093Z,23.71
2016-12-07T00:16:46.615Z,23.77
2016-12-07T00:17:57.118Z,23.67
2016-12-07T00:19:07.569Z,23.57
2016-12-07T00:20:18.256Z,23.69
2016-12-07T00:21:28.746Z,23.69
2016-12-07T00:22:39.217Z,23.69
2016-12-07T00:23:49.704Z,23.63
2016-12-07T00:25:00.224Z,23.59
2016-12-07T00:26:10.792Z,23.63
2016-12-07T00:28:46.307Z,23.69
2016-12-07T00:30:11.297Z,23.59
2016-12-07T00:31:21.963Z,23.71
2016-12-07T00:33:57.400Z,23.53
2016-12-07T00:35:08.059Z,23.5
2016-12-07T00:36:18.552Z,23.42
2016-12-07T00:37:29.003Z,23.5
2016-12-07T00:38:39.476Z,23.49
2016-12-07T00:39:49.944Z,23.44
2016-12-07T00:41:00.407Z,23.42
2016-12-07T00:42:10.872Z,23.5
2016-12-07T00:43:21.353Z,23.56
2016-12-07T00:44:31.807Z,23.53
2016-12-07T00:45:42.272Z,23.45
2016-12-07T00:46:52.737Z,23.53
2016-12-07T00:48:03.403Z,23.56
2016-12-07T00:49:13.862Z,23.56
2016-12-07T00:50:24.324Z,23.56
2016-12-07T00:51:34.772Z,23.45
2016-12-07T00:52:45.237Z,23.53
2016-12-07T00:53:55.703Z,23.39
2016-12-07T00:55:06.164Z,23.52
2016-12-07T00:56:16.623Z,23.49
2016-12-07T00:57:41.627Z,23.53
2016-12-07T00:58:52.105Z,23.44
2016-12-07T01:00:02.562Z,23.37
2016-12-07T01:01:13.030Z,23.34
2016-12-07T01:02:23.523Z,23.37
2016-12-07T01:03:34.067Z,23.26
2016-12-07T01:04:44.820Z,23.31
2016-12-07T01:05:55.348Z,23.31
2016-12-07T01:07:05.902Z,23.19
2016-12-07T01:08:16.495Z,23.37
2016-12-07T01:09:27.100Z,23.37
2016-12-07T01:10:37.660Z,23.35
2016-12-07T01:11:48.213Z,23.29
2016-12-07T01:12:58.765Z,23.44
2016-12-07T01:14:09.327Z,23.29
2016-12-07T01:15:19.930Z,23.38
2016-12-07T01:16:30.491Z,23.39
2016-12-07T01:17:41.045Z,23.31
2016-12-07T01:19:06.126Z,23.37
2016-12-07T01:20:16.676Z,23.37
2016-12-07T01:21:27.450Z,23.31
2016-12-07T01:22:38.028Z,23.22
2016-12-07T01:24:03.095Z,23.25
2016-12-07T01:25:13.653Z,23.26
2016-12-07T01:26:24.207Z,23.22
2016-12-07T01:27:34.981Z,23.19
2016-12-07T01:28:45.546Z,23.19
2016-12-07T01:29:56.134Z,23.25
2016-12-07T01:31:06.707Z,23.23
2016-12-07T01:32:17.259Z,23.23
2016-12-07T01:33:27.822Z,23.32
2016-12-07T01:34:38.417Z,23.25
2016-12-07T01:35:49.495Z,23.18
2016-12-07T01:37:00.587Z,23.18
2016-12-07T01:38:11.821Z,23.19
2016-12-07T01:39:22.376Z,23.22
2016-12-07T01:40:32.930Z,23.16
2016-12-07T01:41:43.500Z,23.32
2016-12-07T01:43:08.776Z,23.26
2016-12-07T01:44:19.312Z,23.29
2016-12-07T01:45:29.883Z,23.32
2016-12-07T01:46:54.983Z,23.21
2016-12-07T01:49:30.863Z,23.29
2016-12-07T01:50:41.467Z,23.22
2016-12-07T01:51:52.030Z,23.29
2016-12-07T01:53:03.102Z,23.31
2016-12-07T01:54:13.859Z,23.26
2016-12-07T01:55:24.427Z,23.32
2016-12-07T01:56:34.996Z,23.41
2016-12-07T01:57:45.543Z,23.26
2016-12-07T01:58:56.141Z,23.34
2016-12-07T02:00:07.189Z,23.21
2016-12-07T02:01:32.162Z,23.22
2016-12-07T02:02:42.609Z,23.18
2016-12-07T02:03:53.029Z,23.11
2016-12-07T02:05:04.061Z,22.96
2016-12-07T02:06:14.546Z,22.85
2016-12-07T02:07:24.968Z,22.88
2016-12-07T02:10:01.085Z,22.89
2016-12-07T02:11:11.538Z,22.93
2016-12-07T02:12:22.007Z,22.93
2016-12-07T02:13:32.439Z,22.94
2016-12-07T02:14:57.452Z,22.86
2016-12-07T02:16:07.896Z,22.88
2016-12-07T02:17:18.556Z,22.85
2016-12-07T02:18:29.012Z,22.85
2016-12-07T02:19:39.454Z,22.85
2016-12-07T02:20:49.915Z,22.88
2016-12-07T02:22:00.555Z,22.85
2016-12-07T02:23:11.022Z,22.84
2016-12-07T02:24:21.675Z,22.99
2016-12-07T02:25:47.164Z,22.78
2016-12-07T02:26:57.866Z,22.63
2016-12-07T02:28:08.526Z,22.6
2016-12-07T02:29:18.978Z,22.45
2016-12-07T02:30:29.418Z,22.48
2016-12-07T02:31:40.244Z,22.46
2016-12-07T02:32:51.066Z,22.56
2016-12-07T02:34:01.415Z,22.54
2016-12-07T02:35:12.251Z,22.56
2016-12-07T02:36:22.600Z,22.54
2016-12-07T02:37:32.951Z,22.51
2016-12-07T02:38:43.294Z,22.52
2016-12-07T02:39:53.838Z,22.59
2016-12-07T02:41:04.274Z,22.52
2016-12-07T02:42:14.700Z,22.56
2016-12-07T02:43:25.139Z,22.54
2016-12-07T02:44:35.551Z,22.51
2016-12-07T02:45:45.988Z,22.54
2016-12-07T02:47:11.009Z,22.52
2016-12-07T02:48:21.789Z,22.52
2016-12-07T02:49:32.248Z,22.45
2016-12-07T02:50:42.663Z,22.45
2016-12-07T02:51:53.275Z,22.49
2016-12-07T02:53:03.692Z,22.46
2016-12-07T02:55:39.525Z,22.35
2016-12-07T02:56:49.976Z,22.33
2016-12-07T02:58:00.401Z,22.39
2016-12-07T02:59:10.855Z,22.39
2016-12-07T03:00:21.477Z,22.41
2016-12-07T03:01:31.905Z,22.48
2016-12-07T03:02:56.891Z,22.48
2016-12-07T03:04:07.365Z,22.46
2016-12-07T03:05:17.970Z,22.44
2016-12-07T03:06:28.390Z,22.44
2016-12-07T03:07:39.753Z,22.48
2016-12-07T03:08:50.178Z,22.42
2016-12-07T03:10:00.830Z,22.41
2016-12-07T03:11:26.004Z,22.26
2016-12-07T03:12:36.421Z,22.19
2016-12-07T03:15:11.790Z,22.09
2016-12-07T03:16:22.289Z,22.08
2016-12-07T03:17:32.780Z,22.11
2016-12-07T03:18:43.241Z,21.98
2016-12-07T03:19:53.712Z,22.14
2016-12-07T03:21:04.213Z,22.08
2016-12-07T03:22:14.865Z,22.17
2016-12-07T03:23:25.305Z,22.17
2016-12-07T03:24:35.737Z,22.21
2016-12-07T03:25:46.159Z,22.02
2016-12-07T03:27:11.366Z,21.96
2016-12-07T03:28:21.870Z,21.99
2016-12-07T03:31:11.864Z,22.02
2016-12-07T03:32:22.495Z,22.06
2016-12-07T03:33:32.950Z,21.93
2016-12-07T03:34:43.401Z,21.86
2016-12-07T03:35:53.855Z,21.89
2016-12-07T03:37:04.336Z,21.77
2016-12-07T03:38:15.006Z,21.83
2016-12-07T03:39:25.468Z,21.77
2016-12-07T03:40:35.890Z,21.9
2016-12-07T03:41:46.387Z,21.81
2016-12-07T03:42:56.837Z,21.86
2016-12-07T03:44:07.449Z,21.9
2016-12-07T03:45:17.948Z,21.91
2016-12-07T03:46:28.399Z,21.91
2016-12-07T03:47:38.895Z,21.89
2016-12-07T03:48:49.386Z,21.91
2016-12-07T03:50:00.018Z,21.98
2016-12-07T03:51:11.079Z,21.94
2016-12-07T03:52:21.596Z,21.99
2016-12-07T03:53:32.127Z,22.04
2016-12-07T03:54:42.645Z,21.98
2016-12-07T03:55:53.362Z,21.96
2016-12-07T03:57:03.897Z,21.93
2016-12-07T03:58:14.427Z,21.98
2016-12-07T03:59:24.960Z,21.9
2016-12-07T04:00:35.480Z,21.91
2016-12-07T04:01:45.972Z,21.89
2016-12-07T04:02:56.492Z,21.89
2016-12-07T04:04:07.011Z,21.91
2016-12-07T04:05:17.992Z,21.9
2016-12-07T04:06:28.474Z,21.93
2016-12-07T04:07:39.094Z,21.94
2016-12-07T04:08:49.590Z,21.94
2016-12-07T04:10:00.117Z,21.93
2016-12-07T04:11:10.620Z,21.89
2016-12-07T04:12:21.129Z,21.93
2016-12-07T04:13:31.866Z,22.08
2016-12-07T04:14:42.383Z,22.01
2016-12-07T04:15:52.877Z,22.02
2016-12-07T04:17:03.359Z,21.99
2016-12-07T04:18:13.865Z,21.98
2016-12-07T04:19:24.530Z,22.05
2016-12-07T04:20:35.012Z,22.09
2016-12-07T04:21:45.493Z,22.12
2016-12-07T04:22:55.963Z,22.14
2016-12-07T04:24:06.404Z,22.15
2016-12-07T04:25:17.052Z,22.17
2016-12-07T04:26:27.547Z,22.15
2016-12-07T04:27:38.063Z,22.14
2016-12-07T04:28:48.471Z,22.17
2016-12-07T04:29:58.918Z,22.2
2016-12-07T04:31:09.489Z,22.14
2016-12-07T04:32:20.424Z,22.17
2016-12-07T04:33:30.855Z,22.17
2016-12-07T04:34:41.311Z,22.17
2016-12-07T04:35:51.723Z,22.27
2016-12-07T04:37:02.259Z,22.24
2016-12-07T04:38:27.245Z,22.24
2016-12-07T04:39:37.692Z,22.29
2016-12-07T04:40:48.637Z,22.35
2016-12-07T04:41:59.299Z,22.33
2016-12-07T04:43:24.258Z,22.3
2016-12-07T04:44:34.668Z,22.26
2016-12-07T04:45:45.079Z,22.35
2016-12-07T04:46:55.530Z,22.33
2016-12-07T04:48:20.500Z,22.21
2016-12-07T04:49:30.941Z,22.15
2016-12-07T04:50:41.377Z,22.19
2016-12-07T04:51:51.806Z,22.11
2016-12-07T04:53:02.459Z,22.11
2016-12-07T04:54:12.891Z,22.17
2016-12-07T04:55:23.780Z,22.12
2016-12-07T04:56:34.230Z,22.19
2016-12-07T04:57:44.690Z,22.2
2016-12-07T04:58:55.309Z,22.21
2016-12-07T05:00:05.827Z,22.2
2016-12-07T05:01:16.317Z,22.2
2016-12-07T05:02:26.823Z,22.08
2016-12-07T05:03:37.351Z,22.19
2016-12-07T05:04:48.040Z,22.14
2016-12-07T05:05:58.526Z,22.27
2016-12-07T05:07:09.062Z,22.14
2016-12-07T05:08:19.543Z,22.15
2016-12-07T05:09:30.045Z,22.2
2016-12-07T05:10:55.278Z,22.19
2016-12-07T05:12:05.745Z,22.23
2016-12-07T05:13:16.237Z,22.09
2016-12-07T05:14:27.248Z,22.21
2016-12-07T05:15:37.926Z,22.2
2016-12-07T05:16:48.389Z,22.19
2016-12-07T05:17:58.877Z,22.19
2016-12-07T05:19:09.367Z,22.09
2016-12-07T05:20:19.857Z,22.17
2016-12-07T05:21:30.431Z,22.14
2016-12-07T05:22:40.896Z,22.17
2016-12-07T05:23:51.397Z,22.15
2016-12-07T05:25:01.876Z,22.04
2016-12-07T05:26:12.342Z,21.96
2016-12-07T05:27:22.928Z,21.94
2016-12-07T05:28:33.402Z,21.96
2016-12-07T05:29:43.885Z,21.96
2016-12-07T05:30:54.341Z,21.91
2016-12-07T05:32:19.447Z,21.98
2016-12-07T05:33:44.471Z,21.96
2016-12-07T05:35:09.503Z,21.89
2016-12-07T05:36:20.042Z,21.91
2016-12-07T05:37:31.026Z,21.99
2016-12-07T05:38:41.697Z,22.01
2016-12-07T05:39:52.160Z,22.02
2016-12-07T05:41:17.184Z,22.01
2016-12-07T05:42:27.859Z,21.99
2016-12-07T05:43:38.334Z,21.89
2016-12-07T05:44:48.832Z,21.96
2016-12-07T05:45:59.353Z,22.04
2016-12-07T05:47:10.378Z,22.02
2016-12-07T05:49:45.974Z,21.99
2016-12-07T05:50:56.489Z,21.89
2016-12-07T05:52:07.527Z,22.06
2016-12-07T05:53:18.070Z,21.94
2016-12-07T05:54:28.579Z,22.04
2016-12-07T05:55:39.075Z,21.99
2016-12-07T05:56:49.631Z,21.98
2016-12-07T05:58:00.129Z,21.96
2016-12-07T05:59:10.647Z,21.99
2016-12-07T06:00:21.150Z,21.93
2016-12-07T06:01:31.685Z,21.96
2016-12-07T06:02:42.169Z,21.89
2016-12-07T06:03:52.681Z,21.89
2016-12-07T06:05:03.330Z,21.79
2016-12-07T06:06:13.793Z,21.82
2016-12-07T06:07:24.297Z,21.82
2016-12-07T06:08:34.800Z,21.83
2016-12-07T06:09:45.277Z,21.73
2016-12-07T06:10:55.910Z,21.64
2016-12-07T06:12:06.417Z,21.58
2016-12-07T06:13:16.841Z,21.48
2016-12-07T06:14:27.316Z,21.46
2016-12-07T06:15:52.572Z,21.42
2016-12-07T06:17:03.040Z,21.46
2016-12-07T06:18:13.497Z,21.48
2016-12-07T06:19:23.922Z,21.51
2016-12-07T06:20:34.387Z,21.52
2016-12-07T06:21:44.874Z,21.52
2016-12-07T06:22:55.318Z,21.53
2016-12-07T06:24:05.789Z,21.53
2016-12-07T06:25:16.252Z,21.45
2016-12-07T06:26:26.746Z,21.52
2016-12-07T06:27:37.388Z,21.55
2016-12-07T06:28:47.885Z,21.53
2016-12-07T06:29:58.837Z,21.64
2016-12-07T06:31:09.306Z,21.52
2016-12-07T06:32:19.760Z,21.52
2016-12-07T06:33:30.228Z,21.46
2016-12-07T06:34:40.685Z,21.37
2016-12-07T06:35:51.127Z,21.33
2016-12-07T06:37:01.580Z,21.28
2016-12-07T06:38:12.110Z,21.27
2016-12-07T06:39:22.755Z,21.27
2016-12-07T06:40:33.173Z,21.24
2016-12-07T06:41:43.607Z,21.33
2016-12-07T06:42:54.048Z,21.24
2016-12-07T06:44:04.948Z,21.3
2016-12-07T06:45:15.432Z,21.33
2016-12-07T06:46:25.840Z,21.33
2016-12-07T06:47:36.249Z,21.34
2016-12-07T06:48:46.684Z,21.34
2016-12-07T06:50:11.699Z,21.33
2016-12-07T06:51:22.166Z,21.36
2016-12-07T06:52:32.595Z,21.34
2016-12-07T06:53:43.003Z,21.33
2016-12-07T06:54:53.413Z,21.36
2016-12-07T06:56:04.017Z,21.34
2016-12-07T06:57:14.450Z,21.34
2016-12-07T06:58:24.861Z,21.28
2016-12-07T06:59:35.271Z,21.27
2016-12-07T07:02:10.783Z,21.34
2016-12-07T07:03:21.106Z,21.31
2016-12-07T07:04:31.439Z,21.28
2016-12-07T07:05:42.232Z,21.33
2016-12-07T07:06:52.552Z,21.36
2016-12-07T07:08:02.868Z,21.34
2016-12-07T07:09:13.183Z,21.34
2016-12-07T07:10:23.499Z,21.37
2016-12-07T07:11:33.825Z,21.43
2016-12-07T07:12:44.139Z,21.43
2016-12-07T07:15:19.335Z,21.31
2016-12-07T07:16:29.649Z,21.36
2016-12-07T07:17:39.967Z,21.37
2016-12-07T07:18:50.286Z,21.34
2016-12-07T07:20:00.605Z,21.33
2016-12-07T07:21:10.929Z,21.36
2016-12-07T07:22:21.248Z,21.4
2016-12-07T07:23:31.764Z,21.36
2016-12-07T07:24:42.078Z,21.36
2016-12-07T07:25:52.393Z,21.4
2016-12-07T07:27:02.706Z,21.36
2016-12-07T07:28:13.025Z,21.37
2016-12-07T07:29:23.375Z,21.4
2016-12-07T07:30:33.758Z,21.38
2016-12-07T07:31:44.117Z,21.34
2016-12-07T07:32:54.456Z,21.38
2016-12-07T07:34:04.856Z,21.37
2016-12-07T07:35:15.207Z,21.34
2016-12-07T07:36:25.583Z,21.36
2016-12-07T07:37:35.932Z,21.33
2016-12-07T07:38:46.245Z,21.31
2016-12-07T07:39:56.585Z,21.36
2016-12-07T07:41:07.705Z,21.33
2016-12-07T07:42:18.043Z,21.33
2016-12-07T07:43:28.393Z,21.33
2016-12-07T07:44:38.745Z,21.38
2016-12-07T07:46:03.858Z,21.31
2016-12-07T07:47:14.171Z,21.34
2016-12-07T07:48:24.541Z,21.26
2016-12-07T07:49:34.907Z,21.19
2016-12-07T07:50:45.286Z,21.11
2016-12-07T07:52:10.257Z,21.11
2016-12-07T07:53:21.107Z,21.15
2016-12-07T07:54:31.517Z,21.19
2016-12-07T07:55:41.933Z,21.27
2016-12-07T07:56:52.461Z,21.08
2016-12-07T07:58:02.775Z,21.16
2016-12-07T07:59:13.119Z,21.18
2016-12-07T08:00:23.439Z,21.18
2016-12-07T08:01:33.757Z,21.18
2016-12-07T08:02:44.268Z,21.01
2016-12-07T08:03:54.587Z,21.21
2016-12-07T08:05:04.918Z,21.19
2016-12-07T08:06:15.230Z,21.18
2016-12-07T08:07:25.551Z,21.26
2016-12-07T08:08:36.066Z,21.21
2016-12-07T08:09:46.386Z,21.21
2016-12-07T08:10:56.731Z,21.19
2016-12-07T08:12:07.052Z,21.21
2016-12-07T08:13:17.843Z,21.21
2016-12-07T08:14:28.352Z,21.28
2016-12-07T08:15:38.672Z,21.3
2016-12-07T08:16:48.986Z,21.33
2016-12-07T08:17:59.306Z,21.31
2016-12-07T08:19:09.620Z,21.16
2016-12-07T08:21:45.020Z,21.11
2016-12-07T08:22:55.339Z,21.08
2016-12-07T08:24:05.657Z,21.05
2016-12-07T08:25:30.744Z,21.05
2016-12-07T08:26:41.540Z,21.03
2016-12-07T08:27:51.857Z,21.03
2016-12-07T08:29:02.174Z,21.05
2016-12-07T08:30:12.491Z,21.06
2016-12-07T08:31:37.377Z,21.06
2016-12-07T08:33:02.261Z,21.06
2016-12-07T08:34:12.581Z,21.16
2016-12-07T08:35:22.900Z,21.09
2016-12-07T08:36:33.217Z,21.08
2016-12-07T08:37:43.529Z,21.24
2016-12-07T08:38:53.848Z,21.21
2016-12-07T08:40:04.162Z,21.26
2016-12-07T08:41:14.484Z,21.26
2016-12-07T08:42:24.801Z,21.22
2016-12-07T08:43:35.114Z,21.24
2016-12-07T08:44:45.430Z,21.31
2016-12-07T08:45:55.750Z,21.27
2016-12-07T08:47:06.066Z,21.27
2016-12-07T08:48:16.486Z,21.36
2016-12-07T08:49:27.282Z,21.37
2016-12-07T08:50:37.599Z,21.31
2016-12-07T08:51:47.914Z,21.3
2016-12-07T08:52:58.236Z,21.31
2016-12-07T08:54:08.755Z,21.34
2016-12-07T08:55:19.159Z,21.33
2016-12-07T08:56:29.589Z,21.38
2016-12-07T08:57:40.023Z,21.31
2016-12-07T08:58:50.465Z,21.38
2016-12-07T09:00:00.897Z,21.33
2016-12-07T09:01:11.331Z,21.33
2016-12-07T09:02:21.766Z,21.3
2016-12-07T09:03:32.206Z,21.36
2016-12-07T09:04:42.668Z,21.37
2016-12-07T09:05:53.302Z,21.34
2016-12-07T09:08:28.718Z,21.42
2016-12-07T09:09:39.155Z,21.48
2016-12-07T09:10:49.587Z,21.52
2016-12-07T09:12:00.025Z,21.55
2016-12-07T09:13:10.461Z,21.49
2016-12-07T09:14:21.387Z,21.52
2016-12-07T09:15:31.819Z,21.52
2016-12-07T09:16:42.946Z,21.59
2016-12-07T09:17:53.382Z,21.7
2016-12-07T09:19:03.821Z,21.7
2016-12-07T09:20:14.262Z,21.66
2016-12-07T09:21:24.696Z,21.7
2016-12-07T09:22:35.143Z,21.77
2016-12-07T09:23:45.575Z,21.73
2016-12-07T09:24:56.009Z,21.81
2016-12-07T09:26:06.446Z,21.74
2016-12-07T09:27:16.880Z,21.83
2016-12-07T09:28:27.518Z,21.9
2016-12-07T09:29:37.954Z,21.79
2016-12-07T09:30:48.388Z,21.86
2016-12-07T09:31:58.822Z,21.9
2016-12-07T09:33:09.261Z,21.94
2016-12-07T09:34:19.791Z,21.89
2016-12-07T09:35:30.230Z,21.96
2016-12-07T09:36:40.666Z,22.08
2016-12-07T09:37:51.099Z,21.99
2016-12-07T09:39:01.532Z,22.09
2016-12-07T09:40:12.655Z,22.11
2016-12-07T09:41:23.091Z,22.02
2016-12-07T09:43:58.511Z,22.09
2016-12-07T09:45:08.960Z,22.14
2016-12-07T09:46:19.397Z,22.17
2016-12-07T09:47:29.837Z,22.19
2016-12-07T09:48:40.270Z,22.15
2016-12-07T09:49:50.733Z,22.27
2016-12-07T09:51:01.372Z,22.23
2016-12-07T09:52:12.297Z,22.27
2016-12-07T09:53:22.731Z,22.36
2016-12-07T09:54:33.161Z,22.41
2016-12-07T09:55:43.601Z,22.36
2016-12-07T09:56:54.039Z,22.48
2016-12-07T09:58:04.474Z,22.48
2016-12-07T09:59:14.940Z,22.61
2016-12-07T10:00:25.376Z,22.56
2016-12-07T10:01:35.816Z,22.52
2016-12-07T10:02:46.251Z,22.67
2016-12-07T10:03:56.689Z,22.7
2016-12-07T10:05:07.124Z,22.66
2016-12-07T10:06:17.564Z,22.7
2016-12-07T10:07:28.000Z,22.7
2016-12-07T10:08:38.641Z,22.75
2016-12-07T10:09:49.082Z,22.84
2016-12-07T10:10:59.513Z,22.81
2016-12-07T10:13:34.943Z,23
2016-12-07T10:14:45.413Z,23
2016-12-07T10:15:55.848Z,23.12
2016-12-07T10:17:06.771Z,23.06
2016-12-07T10:18:17.216Z,23.07
2016-12-07T10:19:27.674Z,23.11
2016-12-07T10:20:38.113Z,23.07
2016-12-07T10:21:48.558Z,23.19
2016-12-07T10:23:13.538Z,23.21
2016-12-07T10:24:23.979Z,23.18
2016-12-07T10:25:34.414Z,23.07
2016-12-07T10:26:44.881Z,23.21
2016-12-07T10:27:55.315Z,23.11
2016-12-07T10:29:05.750Z,23.07
2016-12-07T10:30:16.387Z,23.12
2016-12-07T10:31:26.820Z,23.15
2016-12-07T10:32:37.255Z,23.32
2016-12-07T10:34:02.240Z,23.26
2016-12-07T10:35:12.876Z,23.37
2016-12-07T10:36:23.322Z,23.45
2016-12-07T10:37:33.765Z,23.47
2016-12-07T10:38:58.743Z,23.52
2016-12-07T10:40:09.610Z,23.62
2016-12-07T10:41:19.935Z,23.6
2016-12-07T10:42:30.252Z,23.67
2016-12-07T10:43:40.574Z,23.78
2016-12-07T10:44:50.892Z,23.74
2016-12-07T10:46:01.413Z,23.75
2016-12-07T10:47:11.738Z,23.71
2016-12-07T10:48:22.055Z,23.69
2016-12-07T10:49:32.371Z,23.69
2016-12-07T10:50:42.690Z,23.71
2016-12-07T10:52:07.585Z,23.79
2016-12-07T10:53:17.903Z,23.86
2016-12-07T10:55:53.115Z,24.04
2016-12-07T10:57:03.562Z,23.97
2016-12-07T10:58:13.883Z,24.04
2016-12-07T10:59:24.204Z,24
2016-12-07T11:01:59.410Z,24.21
2016-12-07T11:03:09.729Z,24.24
2016-12-07T11:04:20.051Z,24.34
2016-12-07T11:05:30.368Z,24.37
2016-12-07T11:06:55.253Z,24.45
2016-12-07T11:08:05.771Z,24.49
2016-12-07T11:09:16.090Z,24.52
2016-12-07T11:10:26.406Z,24.46
2016-12-07T11:11:36.722Z,24.51
2016-12-07T11:12:47.039Z,24.52
2016-12-07T11:13:59.517Z,24.66
2016-12-07T11:15:13.748Z,24.64
2016-12-07T11:16:25.316Z,24.77
2016-12-07T11:17:36.965Z,24.83
2016-12-07T11:18:47.282Z,24.98
2016-12-07T11:19:57.605Z,25.07
2016-12-07T11:21:07.925Z,25.2
2016-12-07T11:22:18.249Z,25.34
2016-12-07T11:23:28.568Z,25.51
2016-12-07T11:24:39.371Z,25.67
2016-12-07T11:25:49.893Z,25.66
2016-12-07T11:27:00.216Z,25.93
2016-12-07T11:28:10.539Z,25.98
2016-12-07T11:29:20.861Z,26.28
2016-12-07T11:30:31.189Z,26.38
2016-12-07T11:31:41.710Z,26.59
2016-12-07T11:32:52.029Z,26.65
2016-12-07T11:34:02.355Z,26.6
2016-12-07T11:35:12.677Z,26.68
2016-12-07T11:36:23.021Z,26.73
2016-12-07T11:37:33.543Z,26.81
2016-12-07T11:38:43.866Z,26.91
2016-12-07T11:39:54.185Z,26.84
2016-12-07T11:41:04.505Z,26.94
2016-12-07T11:42:14.830Z,26.96
2016-12-07T11:43:25.148Z,27.21
2016-12-07T11:44:35.475Z,27.4
2016-12-07T11:45:45.803Z,27.63
2016-12-07T11:46:56.122Z,27.66
2016-12-07T11:48:06.446Z,27.59
2016-12-07T11:49:17.248Z,27.53
2016-12-07T11:50:27.928Z,27.58
2016-12-07T11:51:38.364Z,27.65
2016-12-07T11:52:48.823Z,27.65
2016-12-07T11:54:13.809Z,27.81
2016-12-07T11:55:24.251Z,28.11
2016-12-07T11:56:34.688Z,28.06
2016-12-07T11:57:45.613Z,28.09
2016-12-07T11:58:56.140Z,28.27
2016-12-07T12:00:06.584Z,28.43
2016-12-07T12:01:17.030Z,28.65
2016-12-07T12:02:42.016Z,28.77
2016-12-07T12:03:52.481Z,28.95
2016-12-07T12:05:03.116Z,28.95
2016-12-07T12:06:13.556Z,29
2016-12-07T12:07:38.547Z,29.2
2016-12-07T12:08:48.983Z,29.25
2016-12-07T12:09:59.428Z,29.39
2016-12-07T12:11:10.101Z,29.49
2016-12-07T12:12:20.542Z,29.64
2016-12-07T12:13:30.984Z,29.88
2016-12-07T12:14:41.626Z,30.08
2016-12-07T12:15:52.278Z,30.19
2016-12-07T12:17:02.712Z,30.23
2016-12-07T12:18:13.154Z,30.48
2016-12-07T12:19:24.090Z,30.37
2016-12-07T12:20:34.528Z,30.42
2016-12-07T12:21:44.974Z,30.54
2016-12-07T12:22:55.898Z,30.66
2016-12-07T12:24:06.337Z,30.96
2016-12-07T12:25:16.777Z,30.61
2016-12-07T12:26:41.764Z,30.63
2016-12-07T12:29:17.713Z,30.98
2016-12-07T12:30:28.154Z,31.09
2016-12-07T12:31:38.596Z,31.25
2016-12-07T12:32:49.237Z,31.32
2016-12-07T12:33:59.684Z,31.5
2016-12-07T12:35:10.125Z,31.72
2016-12-07T12:36:20.570Z,31.85
2016-12-07T12:37:31.008Z,31.87
2016-12-07T12:38:41.452Z,31.87
2016-12-07T12:39:51.894Z,31.98
2016-12-07T12:41:02.336Z,32.12
2016-12-07T12:42:12.779Z,32.36
2016-12-07T12:43:23.250Z,32.4
2016-12-07T12:44:33.694Z,32.39
2016-12-07T12:45:44.141Z,32.25
2016-12-07T12:46:54.587Z,32.36
2016-12-07T12:48:05.035Z,32.28
2016-12-07T12:49:15.486Z,32.28
2016-12-07T12:50:25.956Z,32.43
2016-12-07T12:51:36.401Z,32.31
2016-12-07T12:52:46.844Z,32.5
2016-12-07T12:55:23.079Z,32.68
2016-12-07T12:56:33.521Z,32.83
2016-12-07T12:57:43.961Z,33
2016-12-07T12:58:54.399Z,33.12
2016-12-07T13:00:04.869Z,32.96
2016-12-07T13:01:15.316Z,32.8
2016-12-07T13:02:40.307Z,32.71
2016-12-07T13:03:50.750Z,32.65
2016-12-07T13:05:01.193Z,32.54
2016-12-07T13:06:12.126Z,32.47
2016-12-07T13:07:22.571Z,32.68
2016-12-07T13:08:33.016Z,32.76
2016-12-07T13:09:43.458Z,32.88
2016-12-07T13:10:53.900Z,33
2016-12-07T13:12:04.349Z,33.09
2016-12-07T13:13:14.792Z,33.17
2016-12-07T13:14:25.232Z,33.4
2016-12-07T13:15:35.671Z,33.45
2016-12-07T13:17:00.664Z,33.49
2016-12-07T13:18:11.103Z,33.62
2016-12-07T13:19:36.094Z,33.71
2016-12-07T13:20:46.539Z,33.84
2016-12-07T13:22:11.882Z,33.9
2016-12-07T13:23:22.347Z,33.89
2016-12-07T13:24:32.793Z,33.75
2016-12-07T13:25:43.238Z,33.68
2016-12-07T13:27:08.233Z,33.72
2016-12-07T13:28:18.697Z,33.79
2016-12-07T13:29:29.145Z,34.05
2016-12-07T13:30:40.086Z,33.99
2016-12-07T13:32:05.082Z,34.16
2016-12-07T13:33:30.079Z,34.09
2016-12-07T13:34:40.525Z,33.63
2016-12-07T13:35:50.973Z,33.47
2016-12-07T13:37:01.904Z,33.14
2016-12-07T13:38:12.358Z,33.15
2016-12-07T13:39:22.800Z,33.37
2016-12-07T13:40:47.790Z,33.29
2016-12-07T13:41:58.233Z,33.37
2016-12-07T13:43:23.224Z,33.62
2016-12-07T13:44:48.220Z,33.68
2016-12-07T13:45:58.666Z,33.86
2016-12-07T13:48:34.304Z,33.79
2016-12-07T13:49:59.425Z,33.81
2016-12-07T13:51:09.874Z,34.14
2016-12-07T13:52:20.323Z,34.14
2016-12-07T13:53:31.258Z,34.16
2016-12-07T13:54:41.701Z,34.14
2016-12-07T13:55:52.144Z,34.27
2016-12-07T13:57:02.595Z,34.5
2016-12-07T13:58:13.039Z,34.52
2016-12-07T13:59:23.485Z,34.55
2016-12-07T14:00:33.929Z,34.46
2016-12-07T14:01:44.565Z,34.37
2016-12-07T14:02:55.008Z,34.48
2016-12-07T14:05:44.991Z,34.61
2016-12-07T14:06:55.437Z,34.55
2016-12-07T14:08:05.890Z,34.53
2016-12-07T14:09:16.342Z,34.61
2016-12-07T14:10:27.184Z,34.73
2016-12-07T14:11:37.511Z,34.71
2016-12-07T14:12:47.838Z,34.14
2016-12-07T14:13:58.165Z,33.75
2016-12-07T14:15:08.494Z,33.62
2016-12-07T14:16:18.817Z,33.59
2016-12-07T14:17:29.152Z,33.59
2016-12-07T14:18:39.988Z,33.55
2016-12-07T14:19:50.310Z,33.53
2016-12-07T14:21:00.847Z,33.72
2016-12-07T14:22:11.175Z,33.82
2016-12-07T14:23:21.502Z,33.79
2016-12-07T14:24:32.304Z,33.93
2016-12-07T14:25:42.636Z,34.05
2016-12-07T14:26:53.168Z,34.14
2016-12-07T14:28:18.068Z,34.23
2016-12-07T14:29:28.898Z,34.4
2016-12-07T14:30:39.232Z,34.48
2016-12-07T14:31:49.761Z,34.6
2016-12-07T14:33:00.088Z,34.71
2016-12-07T14:34:10.425Z,34.88
2016-12-07T14:35:20.777Z,34.9
2016-12-07T14:36:31.582Z,34.98
2016-12-07T14:37:42.114Z,34.94
2016-12-07T14:38:52.445Z,34.91
2016-12-07T14:40:02.785Z,34.69
2016-12-07T14:41:13.121Z,34.27
2016-12-07T14:42:23.458Z,34.18
2016-12-07T14:43:33.795Z,34.12
2016-12-07T14:44:58.741Z,34.05
2016-12-07T14:46:09.196Z,34.16
2016-12-07T14:47:19.649Z,34.31
2016-12-07T14:48:30.101Z,34.45
2016-12-07T14:51:06.528Z,34.65
2016-12-07T14:52:17.004Z,34.45
2016-12-07T14:53:28.339Z,34.4
2016-12-07T14:54:53.354Z,34.33
2016-12-07T14:56:03.824Z,34.4
2016-12-07T14:57:14.275Z,34.34
2016-12-07T14:58:24.724Z,34.45
2016-12-07T15:01:00.657Z,34.3
2016-12-07T15:02:11.115Z,34.26
2016-12-07T15:03:21.573Z,34.26
2016-12-07T15:04:32.049Z,34.11
2016-12-07T15:05:42.502Z,33.89
2016-12-07T15:06:52.972Z,33.81
2016-12-07T15:08:03.435Z,33.86
2016-12-07T15:09:13.887Z,33.68
2016-12-07T15:10:24.539Z,33.52
2016-12-07T15:11:35.502Z,33.15
2016-12-07T15:12:45.950Z,32.9
2016-12-07T15:13:56.410Z,32.71
2016-12-07T15:15:07.390Z,32.68
2016-12-07T15:16:32.458Z,32.72
2016-12-07T15:17:42.994Z,32.9
2016-12-07T15:18:53.536Z,32.81
2016-12-07T15:20:04.439Z,32.78
2016-12-07T15:21:15.195Z,32.71
2016-12-07T15:22:26.266Z,32.84
2016-12-07T15:23:36.810Z,33.03
2016-12-07T15:24:47.375Z,33.2
2016-12-07T15:25:57.920Z,32.98
2016-12-07T15:27:08.480Z,33.11
2016-12-07T15:28:19.047Z,33.14
2016-12-07T15:29:29.603Z,33.17
2016-12-07T15:30:40.151Z,33.14
2016-12-07T15:31:50.698Z,33.05
2016-12-07T15:33:01.348Z,32.83
2016-12-07T15:34:11.909Z,32.71
2016-12-07T15:35:22.468Z,32.58
2016-12-07T15:37:58.264Z,32.72
2016-12-07T15:39:08.821Z,32.76
2016-12-07T15:40:19.390Z,32.81
2016-12-07T15:41:29.965Z,32.85
2016-12-07T15:42:40.536Z,32.9
2016-12-07T15:43:51.092Z,32.95
2016-12-07T15:46:26.740Z,32.93
2016-12-07T15:47:37.322Z,32.88
2016-12-07T15:48:47.913Z,32.83
2016-12-07T15:49:58.479Z,32.83
2016-12-07T15:51:09.028Z,32.58
2016-12-07T15:52:19.619Z,32.31
2016-12-07T15:53:30.190Z,32.39
2016-12-07T15:54:40.961Z,32.36
2016-12-07T15:55:51.509Z,32.31
2016-12-07T15:57:02.078Z,32.41
2016-12-07T15:58:12.634Z,32.46